Time;durP1;ratioP1;P1;durP2;ratioP2;P2;SDS_P1;SDS_P2;PMS_P1;PMS_P2;Temp;Humidity;BMP_temperature;BMP_pressure;BME280_temperature;BME280_humidity;BME280_pressure;Samples;Min_cycle;Max_cycle;Signal;HPM_P1;HPM_P2
2023/10/04 00:04:11;;;;;;;2.80;1.58;;;18.70;99.90;;;;;;10052383;28;20412;-70
2023/10/04 00:09:05;;;;;;;2.70;1.30;;;18.70;99.90;;;;;;10042236;28;20045;-66
2023/10/04 00:13:55;;;;;;;3.05;1.40;;;18.60;99.90;;;;;;10034134;28;20432;-67
2023/10/04 00:18:46;;;;;;;2.60;1.50;;;18.50;99.90;;;;;;10033152;28;20030;-67
2023/10/04 00:23:38;;;;;;;4.05;1.77;;;18.40;99.90;;;;;;10055679;28;20041;-67
2023/10/04 00:28:30;;;;;;;2.53;1.38;;;18.50;99.90;;;;;;10051776;28;20691;-67
2023/10/04 00:33:21;;;;;;;3.90;1.70;;;18.30;99.90;;;;;;10054692;28;20048;-66
2023/10/04 00:38:14;;;;;;;3.05;1.58;;;18.30;99.90;;;;;;10037885;28;20109;-67
2023/10/04 00:43:13;;;;;;;4.82;1.60;;;18.30;99.90;;;;;;10028113;28;20048;-67
2023/10/04 00:48:20;;;;;;;3.13;1.77;;;18.20;99.90;;;;;;10044810;28;20108;-67
2023/10/04 00:53:22;;;;;;;3.40;1.40;;;18.30;99.90;;;;;;10054085;28;20029;-68
2023/10/04 00:58:15;;;;;;;4.57;2.05;;;18.20;99.90;;;;;;10055493;28;20022;-66
2023/10/04 01:03:13;;;;;;;4.05;1.48;;;18.20;99.90;;;;;;10040630;28;20049;-66
2023/10/04 01:08:05;;;;;;;3.83;1.30;;;18.10;99.90;;;;;;10046976;28;20032;-66
2023/10/04 01:12:56;;;;;;;11.10;1.90;;;18.20;99.90;;;;;;10034381;28;20118;-68
2023/10/04 01:17:48;;;;;;;3.33;1.60;;;18.10;99.90;;;;;;10024365;28;20086;-68
2023/10/04 01:22:38;;;;;;;3.05;1.80;;;18.00;99.90;;;;;;10048999;28;20831;-66
2023/10/04 01:27:30;;;;;;;3.28;1.40;;;18.00;99.90;;;;;;10049537;28;20053;-67
2023/10/04 01:32:23;;;;;;;2.67;1.35;;;18.00;99.90;;;;;;10055173;28;20029;-67
2023/10/04 01:37:14;;;;;;;2.97;1.40;;;18.00;99.90;;;;;;10032914;28;20033;-66
2023/10/04 01:42:04;;;;;;;3.13;1.50;;;18.00;99.90;;;;;;10032903;28;20048;-66
2023/10/04 01:46:56;;;;;;;3.13;1.02;;;18.00;99.90;;;;;;10041935;28;20022;-66
2023/10/04 01:51:46;;;;;;;1.92;1.10;;;17.90;99.90;;;;;;10052989;28;20246;-66
2023/10/04 01:56:37;;;;;;;2.67;1.23;;;17.80;99.90;;;;;;10051999;28;20478;-67
2023/10/04 02:01:28;;;;;;;4.13;1.52;;;17.70;99.90;;;;;;10044645;28;20036;-67
2023/10/04 02:06:19;;;;;;;2.60;1.20;;;17.60;99.90;;;;;;10033655;28;20447;-67
2023/10/04 02:11:11;;;;;;;4.20;1.70;;;17.60;99.90;;;;;;10034080;28;20088;-65
2023/10/04 02:16:02;;;;;;;3.08;1.38;;;17.50;99.90;;;;;;10029353;28;20056;-66
2023/10/04 02:20:53;;;;;;;2.20;1.30;;;17.60;99.90;;;;;;10037195;28;20574;-66
2023/10/04 02:25:44;;;;;;;2.58;1.60;;;17.60;99.90;;;;;;10052436;28;20076;-66
2023/10/04 02:30:34;;;;;;;3.40;1.88;;;17.60;99.90;;;;;;10050777;28;20446;-68
2023/10/04 02:35:29;;;;;;;3.58;1.42;;;17.50;99.90;;;;;;10044945;28;20565;-67
2023/10/04 02:40:22;;;;;;;2.42;1.58;;;17.50;99.90;;;;;;10028852;28;20034;-66
2023/10/04 02:45:18;;;;;;;2.80;1.25;;;17.40;99.90;;;;;;10043794;28;20107;-66
2023/10/04 02:50:10;;;;;;;1.95;1.40;;;17.30;99.90;;;;;;10059013;28;20498;-66
2023/10/04 02:55:01;;;;;;;2.80;1.58;;;17.30;99.90;;;;;;10061848;28;20160;-66
2023/10/04 02:59:54;;;;;;;3.35;1.23;;;17.40;99.90;;;;;;10061057;28;20534;-65
2023/10/04 03:04:46;;;;;;;2.22;1.42;;;17.30;99.90;;;;;;10052773;28;20413;-69
2023/10/04 03:09:37;;;;;;;2.58;1.40;;;17.40;99.90;;;;;;10042266;28;20037;-65
2023/10/04 03:14:27;;;;;;;4.20;1.95;;;17.30;99.90;;;;;;10047213;28;20132;-68
2023/10/04 03:19:18;;;;;;;2.90;1.63;;;17.30;99.90;;;;;;10032308;28;20121;-67
2023/10/04 03:24:10;;;;;;;2.80;1.35;;;17.40;99.90;;;;;;10067632;28;20044;-68
2023/10/04 03:29:00;;;;;;;2.53;1.33;;;17.30;99.90;;;;;;10050953;28;20061;-68
2023/10/04 03:33:53;;;;;;;3.00;1.55;;;17.20;99.90;;;;;;10052845;28;20029;-67
2023/10/04 03:38:44;;;;;;;3.50;1.40;;;17.20;99.90;;;;;;10035903;28;20028;-66
2023/10/04 03:43:35;;;;;;;2.83;1.90;;;17.20;99.90;;;;;;10027352;28;20041;-66
2023/10/04 03:48:26;;;;;;;3.67;1.33;;;17.00;99.90;;;;;;10056775;28;20036;-65
2023/10/04 03:53:20;;;;;;;5.43;1.50;;;17.00;99.90;;;;;;10052759;28;20112;-65
2023/10/04 03:58:12;;;;;;;3.57;1.30;;;16.90;99.90;;;;;;10050356;28;20022;-65
2023/10/04 04:03:03;;;;;;;3.22;1.67;;;16.90;99.90;;;;;;10044899;28;20049;-66
2023/10/04 04:07:53;;;;;;;3.53;1.92;;;16.80;99.90;;;;;;10049801;28;20223;-65
2023/10/04 04:12:46;;;;;;;3.85;2.10;;;16.80;99.90;;;;;;10035257;28;20390;-66
2023/10/04 04:17:37;;;;;;;3.75;1.70;;;16.80;99.90;;;;;;10031101;28;20257;-66
2023/10/04 04:22:28;;;;;;;1.83;1.48;;;16.80;99.90;;;;;;10050926;28;20102;-66
2023/10/04 04:27:22;;;;;;;3.63;1.65;;;16.80;99.90;;;;;;10052533;28;20068;-72
2023/10/04 04:32:15;;;;;;;5.10;2.67;;;16.60;99.90;;;;;;10057288;28;20029;-69
2023/10/04 04:37:08;;;;;;;5.03;1.85;;;16.60;99.90;;;;;;10043174;28;20034;-71
2023/10/04 04:41:59;;;;;;;3.67;1.80;;;16.60;99.90;;;;;;10029587;28;20061;-71
2023/10/04 04:46:51;;;;;;;4.78;1.38;;;16.60;99.90;;;;;;10034020;28;20380;-66
2023/10/04 04:51:42;;;;;;;4.53;1.70;;;16.50;99.90;;;;;;10052790;28;20033;-66
2023/10/04 04:56:32;;;;;;;3.33;1.60;;;16.40;99.90;;;;;;10054317;28;20502;-69
2023/10/04 05:01:23;;;;;;;4.15;1.52;;;16.50;99.90;;;;;;10042371;28;20061;-70
2023/10/04 05:06:22;;;;;;;4.18;1.88;;;16.40;99.90;;;;;;10041137;28;20025;-68
2023/10/04 05:11:13;;;;;;;6.97;2.50;;;16.40;99.90;;;;;;10033619;28;20453;-70
2023/10/04 05:16:07;;;;;;;8.05;1.63;;;16.40;99.90;;;;;;10030686;28;20041;-72
2023/10/04 05:21:00;;;;;;;3.58;2.15;;;16.30;99.90;;;;;;10046078;28;20091;-68
2023/10/04 05:25:52;;;;;;;3.95;1.95;;;16.30;99.90;;;;;;10054883;28;20037;-67
2023/10/04 05:30:45;;;;;;;4.25;1.95;;;16.40;99.90;;;;;;10054445;28;20048;-66
2023/10/04 05:35:36;;;;;;;3.92;2.28;;;16.30;99.90;;;;;;10049948;28;20033;-66
2023/10/04 05:40:27;;;;;;;3.78;1.80;;;16.30;99.90;;;;;;10043786;28;21238;-68
2023/10/04 05:45:22;;;;;;;4.45;2.47;;;16.30;99.90;;;;;;10057498;28;20064;-67
2023/10/04 05:50:13;;;;;;;2.40;1.47;;;16.30;99.90;;;;;;10051536;28;20034;-66
2023/10/04 05:55:04;;;;;;;3.75;2.05;;;16.20;99.90;;;;;;10049694;28;20049;-66
2023/10/04 05:59:55;;;;;;;2.40;1.60;;;16.30;99.90;;;;;;10046650;28;20017;-66
2023/10/04 06:04:47;;;;;;;3.58;1.83;;;16.20;99.90;;;;;;10036644;28;20042;-67
2023/10/04 06:09:42;;;;;;;6.32;2.78;;;16.20;99.90;;;;;;10033136;28;20084;-65
2023/10/04 06:14:32;;;;;;;4.70;1.95;;;16.30;99.90;;;;;;10033719;28;20076;-65
2023/10/04 06:19:25;;;;;;;3.63;1.52;;;16.30;99.90;;;;;;10024714;28;20502;-68
2023/10/04 06:24:15;;;;;;;4.75;2.50;;;16.20;99.90;;;;;;10060806;28;20072;-68
2023/10/04 06:29:07;;;;;;;7.13;1.85;;;16.20;99.90;;;;;;10059697;28;20529;-66
2023/10/04 06:33:58;;;;;;;4.57;2.67;;;16.10;99.90;;;;;;10063070;28;20021;-67
2023/10/04 06:38:49;;;;;;;5.38;2.75;;;16.20;99.90;;;;;;10062345;28;20025;-68
2023/10/04 06:43:40;;;;;;;7.55;2.83;;;16.20;99.90;;;;;;10060172;28;20042;-68
2023/10/04 06:48:32;;;;;;;3.97;2.55;;;16.20;99.90;;;;;;10060046;28;20026;-70
2023/10/04 06:53:23;;;;;;;3.95;2.03;;;16.20;99.90;;;;;;10058065;28;20040;-69
2023/10/04 06:58:15;;;;;;;3.38;1.67;;;16.30;99.90;;;;;;10060849;28;20025;-67
2023/10/04 07:03:05;;;;;;;3.22;2.35;;;16.20;99.90;;;;;;10059819;28;20095;-67
2023/10/04 07:07:57;;;;;;;5.25;2.45;;;16.20;99.90;;;;;;10033275;28;20087;-69
2023/10/04 07:12:52;;;;;;;3.58;2.35;;;16.20;99.90;;;;;;10058184;28;20403;-67
2023/10/04 07:17:42;;;;;;;6.05;2.70;;;16.20;99.90;;;;;;10051166;28;20041;-67
2023/10/04 07:22:36;;;;;;;3.05;1.83;;;16.20;99.90;;;;;;10052989;28;20041;-68
2023/10/04 07:27:26;;;;;;;3.22;1.95;;;16.30;99.90;;;;;;10051454;28;20052;-67
2023/10/04 07:32:17;;;;;;;2.70;1.98;;;16.30;99.90;;;;;;10055010;28;20028;-66
2023/10/04 07:37:08;;;;;;;3.88;2.28;;;16.20;99.90;;;;;;10046343;28;20491;-67
2023/10/04 07:41:59;;;;;;;4.03;2.33;;;16.40;99.90;;;;;;10045090;28;20264;-68
2023/10/04 07:46:50;;;;;;;3.50;2.33;;;16.50;99.90;;;;;;10046339;28;20491;-67
2023/10/04 07:51:41;;;;;;;5.75;2.40;;;16.50;99.90;;;;;;10059861;28;20029;-68
2023/10/04 07:56:34;;;;;;;5.40;2.75;;;16.60;99.90;;;;;;10055903;28;20305;-68
2023/10/04 08:01:24;;;;;;;11.88;3.05;;;16.70;99.90;;;;;;10040371;28;20014;-68
2023/10/04 08:06:15;;;;;;;5.85;2.22;;;16.80;99.90;;;;;;10044677;28;20120;-67
2023/10/04 08:11:08;;;;;;;3.33;2.28;;;16.80;99.90;;;;;;10046948;28;20450;-68
2023/10/04 08:16:03;;;;;;;4.53;2.50;;;16.80;99.90;;;;;;10052987;28;20080;-67
2023/10/04 08:20:54;;;;;;;3.13;2.10;;;16.90;99.90;;;;;;10055518;28;20040;-68
2023/10/04 08:25:45;;;;;;;2.50;1.60;;;16.90;99.90;;;;;;10058171;28;20472;-68
2023/10/04 08:30:39;;;;;;;4.38;2.17;;;17.00;99.90;;;;;;10057035;28;20049;-67
2023/10/04 08:35:34;;;;;;;5.38;2.20;;;17.10;99.90;;;;;;10037113;28;20514;-67
2023/10/04 08:40:27;;;;;;;4.00;1.50;;;17.10;99.90;;;;;;10036250;28;20439;-69
2023/10/04 08:45:18;;;;;;;3.88;1.70;;;17.10;99.90;;;;;;10036856;28;20048;-67
2023/10/04 08:50:12;;;;;;;6.97;2.65;;;17.10;99.90;;;;;;10057713;28;20018;-69
2023/10/04 08:55:07;;;;;;;3.53;2.47;;;17.20;99.90;;;;;;10056263;28;20045;-67
2023/10/04 08:59:59;;;;;;;1.88;1.50;;;17.20;99.90;;;;;;10045999;28;20033;-67
2023/10/04 09:04:50;;;;;;;2.10;1.20;;;17.30;99.90;;;;;;10047993;28;20033;-66
2023/10/04 09:09:43;;;;;;;3.63;1.65;;;17.40;99.90;;;;;;10054521;28;20041;-66
2023/10/04 09:14:37;;;;;;;4.63;1.45;;;17.30;99.90;;;;;;10044161;28;20112;-66
2023/10/04 09:19:27;;;;;;;4.30;2.00;;;17.30;99.90;;;;;;10039389;28;20399;-67
2023/10/04 09:24:18;;;;;;;2.40;1.67;;;17.40;99.90;;;;;;10056247;28;20048;-68
2023/10/04 09:29:11;;;;;;;4.70;1.90;;;17.40;99.90;;;;;;10055574;28;20179;-67
2023/10/04 09:34:14;;;;;;;3.42;1.27;;;17.40;99.90;;;;;;10059623;28;20514;-67
2023/10/04 09:39:08;;;;;;;2.30;1.35;;;17.50;99.90;;;;;;10039612;28;20091;-68
2023/10/04 09:43:59;;;;;;;5.57;1.17;;;17.60;99.90;;;;;;10036005;28;20057;-68
2023/10/04 09:48:50;;;;;;;3.38;1.15;;;17.50;99.90;;;;;;10047656;28;20033;-71
2023/10/04 09:53:41;;;;;;;2.40;1.08;;;17.60;99.90;;;;;;10053496;28;20072;-68
2023/10/04 09:58:32;;;;;;;7.43;2.53;;;17.60;99.90;;;;;;10060236;28;20021;-68
2023/10/04 10:03:29;;;;;;;8.48;2.08;;;17.70;99.90;;;;;;10059525;28;20045;-67
2023/10/04 10:08:21;;;;;;;5.80;1.63;;;17.80;99.90;;;;;;10050178;28;20041;-67
2023/10/04 10:13:13;;;;;;;2.95;1.60;;;17.70;99.90;;;;;;10051667;28;20032;-68
2023/10/04 10:18:07;;;;;;;3.53;1.42;;;17.80;99.90;;;;;;10045114;28;20041;-68
2023/10/04 10:23:00;;;;;;;3.78;1.42;;;17.90;99.90;;;;;;10058009;28;20037;-69
2023/10/04 10:27:55;;;;;;;6.95;2.08;;;18.00;99.90;;;;;;10059196;28;20089;-68
2023/10/04 10:32:53;;;;;;;3.97;1.52;;;18.00;99.90;;;;;;10063038;28;20149;-68
2023/10/04 10:37:43;;;;;;;3.88;1.35;;;18.10;99.90;;;;;;10053211;28;20033;-68
2023/10/04 10:43:06;;;;;;;3.75;1.35;;;18.10;99.90;;;;;;10060182;28;20037;-71
2023/10/04 10:47:58;;;;;;;5.50;2.65;;;18.10;99.90;;;;;;10052621;28;20056;-67
2023/10/04 10:53:05;;;;;;;7.10;1.83;;;18.10;99.90;;;;;;10056947;28;20430;-68
2023/10/04 10:57:57;;;;;;;4.13;1.90;;;18.10;99.90;;;;;;10058449;28;20034;-69
2023/10/04 11:02:53;;;;;;;3.78;1.30;;;18.20;99.90;;;;;;10049692;28;20037;-75
2023/10/04 11:07:48;;;;;;;1.98;1.23;;;18.30;99.90;;;;;;10042798;28;20502;-72
2023/10/04 11:12:42;;;;;;;7.85;2.33;;;18.40;99.90;;;;;;10060309;28;20042;-74
2023/10/04 11:17:35;;;;;;;2.78;1.38;;;18.50;99.90;;;;;;10060994;28;20491;-69
2023/10/04 11:22:25;;;;;;;3.63;1.17;;;18.40;99.90;;;;;;10054988;28;20049;-73
2023/10/04 11:27:22;;;;;;;2.83;1.00;;;18.50;99.90;;;;;;10055417;28;20045;-73
2023/10/04 11:32:14;;;;;;;3.22;1.17;;;18.50;99.90;;;;;;10062622;28;20090;-66
2023/10/04 11:37:05;;;;;;;4.18;1.95;;;18.50;99.90;;;;;;10057691;28;20029;-69
2023/10/04 11:41:55;;;;;;;2.70;1.35;;;18.60;99.90;;;;;;10056990;28;20045;-70
2023/10/04 11:46:58;;;;;;;3.30;1.50;;;18.60;99.90;;;;;;10056865;28;20406;-73
2023/10/04 11:51:53;;;;;;;2.17;1.00;;;18.60;99.90;;;;;;10056189;28;20024;-73
2023/10/04 11:56:44;;;;;;;3.63;1.00;;;18.60;99.90;;;;;;10052486;28;20051;-72
2023/10/04 12:01:44;;;;;;;1.77;1.17;;;18.50;99.90;;;;;;10048208;28;20149;-73
2023/10/04 12:06:36;;;;;;;2.60;1.33;;;18.60;99.90;;;;;;10054862;28;20040;-74
2023/10/04 12:11:27;;;;;;;2.85;1.08;;;18.80;99.90;;;;;;10046308;28;20473;-67
2023/10/04 12:16:18;;;;;;;2.88;1.50;;;19.00;99.90;;;;;;10031863;28;20513;-68
2023/10/04 12:21:09;;;;;;;5.25;1.23;;;19.00;99.90;;;;;;10049990;28;20036;-65
2023/10/04 12:26:00;;;;;;;3.17;0.90;;;19.00;99.90;;;;;;10049937;28;20187;-68
2023/10/04 12:30:51;;;;;;;3.20;1.42;;;19.10;99.90;;;;;;10015549;28;1126078;-66
2023/10/04 12:35:42;;;;;;;3.25;1.05;;;19.10;99.90;;;;;;10046945;28;20042;-67
2023/10/04 12:40:34;;;;;;;3.83;1.60;;;19.20;99.90;;;;;;10036775;28;20048;-68
2023/10/04 12:45:25;;;;;;;2.20;0.70;;;19.30;99.90;;;;;;10035110;28;20466;-69
2023/10/04 12:50:15;;;;;;;2.40;0.93;;;19.40;99.90;;;;;;10053379;28;20148;-70
2023/10/04 12:55:07;;;;;;;4.68;1.83;;;19.50;99.90;;;;;;10054885;28;20083;-68
2023/10/04 12:59:58;;;;;;;2.13;0.90;;;19.60;99.90;;;;;;10056733;28;20159;-69
2023/10/04 13:04:51;;;;;;;2.75;0.80;;;19.70;99.90;;;;;;10051353;28;20120;-69
2023/10/04 13:09:44;;;;;;;6.18;1.05;;;19.80;99.90;;;;;;10045394;28;20090;-67
2023/10/04 13:14:35;;;;;;;3.58;1.05;;;19.80;99.90;;;;;;10031656;28;20519;-68
2023/10/04 13:19:26;;;;;;;2.60;1.10;;;19.80;99.90;;;;;;10042637;28;20026;-69
2023/10/04 13:24:18;;;;;;;2.45;1.08;;;19.90;99.90;;;;;;10049575;28;20518;-68
2023/10/04 13:29:14;;;;;;;2.63;0.77;;;19.90;99.90;;;;;;10051001;28;20054;-68
2023/10/04 13:34:05;;;;;;;1.15;0.90;;;19.90;99.90;;;;;;10060416;28;20036;-70
2023/10/04 13:38:56;;;;;;;3.20;1.05;;;19.90;99.90;;;;;;10044014;28;20479;-69
2023/10/04 13:43:48;;;;;;;2.05;0.80;;;19.90;99.90;;;;;;10055589;28;20042;-69
2023/10/04 13:48:41;;;;;;;2.38;1.52;;;20.00;99.80;;;;;;10055583;28;20037;-68
2023/10/04 13:53:32;;;;;;;2.20;1.10;;;20.00;99.80;;;;;;10057119;28;20036;-68
2023/10/04 13:58:23;;;;;;;2.20;1.20;;;20.10;99.60;;;;;;10045702;28;20114;-68
2023/10/04 14:03:15;;;;;;;2.08;1.27;;;20.20;99.50;;;;;;10039677;28;20118;-67
2023/10/04 14:08:09;;;;;;;1.98;1.50;;;20.20;99.30;;;;;;10044884;28;20021;-67
2023/10/04 14:13:01;;;;;;;3.72;1.08;;;20.10;99.20;;;;;;10031037;28;20029;-70
2023/10/04 14:17:54;;;;;;;3.80;1.20;;;20.20;99.10;;;;;;10022954;28;20402;-72
2023/10/04 14:22:45;;;;;;;1.92;0.95;;;20.30;99.00;;;;;;10036621;28;20068;-68
2023/10/04 14:27:36;;;;;;;1.58;0.82;;;20.40;98.80;;;;;;10055389;28;20049;-66
2023/10/04 14:32:26;;;;;;;2.67;0.70;;;20.40;98.80;;;;;;10054271;28;20047;-66
2023/10/04 14:37:18;;;;;;;1.95;1.10;;;20.40;98.70;;;;;;10046412;28;20018;-71
2023/10/04 14:42:10;;;;;;;1.67;1.02;;;20.60;98.50;;;;;;10042301;28;20045;-71
2023/10/04 14:47:03;;;;;;;2.73;1.30;;;20.70;98.40;;;;;;10042383;28;20038;-68
2023/10/04 14:51:54;;;;;;;2.20;0.95;;;20.70;98.30;;;;;;10058471;28;20056;-68
2023/10/04 14:56:46;;;;;;;1.50;1.00;;;20.70;98.10;;;;;;10051336;28;20029;-68
2023/10/04 15:01:38;;;;;;;4.35;0.85;;;20.70;98.00;;;;;;10052527;28;20034;-68
2023/10/04 15:06:29;;;;;;;2.53;0.95;;;20.70;98.00;;;;;;10052964;28;20532;-66
2023/10/04 15:11:29;;;;;;;3.65;1.20;;;20.70;97.90;;;;;;10043573;28;20118;-68
2023/10/04 15:16:20;;;;;;;1.60;0.90;;;21.00;97.80;;;;;;10037159;28;20388;-68
2023/10/04 15:21:11;;;;;;;2.33;1.40;;;21.30;97.70;;;;;;10048460;28;20044;-70
2023/10/04 15:26:04;;;;;;;2.83;1.20;;;21.20;97.60;;;;;;10053116;28;20048;-70
2023/10/04 15:30:56;;;;;;;3.63;2.55;;;21.00;97.60;;;;;;10053927;28;20414;-69
2023/10/04 15:35:46;;;;;;;3.05;1.00;;;20.90;97.50;;;;;;10060132;28;20041;-69
2023/10/04 15:40:39;;;;;;;4.75;0.73;;;20.70;97.40;;;;;;10049004;28;20096;-69
2023/10/04 15:45:33;;;;;;;2.05;0.60;;;20.70;97.80;;;;;;10039143;28;20123;-69
2023/10/04 15:50:24;;;;;;;2.90;1.08;;;20.50;97.50;;;;;;10057860;28;20029;-67
2023/10/04 15:55:15;;;;;;;3.60;1.15;;;20.40;97.50;;;;;;10054564;28;20034;-68
2023/10/04 16:00:10;;;;;;;3.67;1.00;;;20.40;97.60;;;;;;10048058;28;20022;-68
2023/10/04 16:05:05;;;;;;;;;;;20.40;97.50;;;;;;10057008;28;20041;-68
2023/10/04 16:09:57;;;;;;;4.78;0.95;;;20.30;97.40;;;;;;10051091;28;19935;-69
2023/10/04 16:14:48;;;;;;;3.97;0.80;;;20.30;97.70;;;;;;10042897;28;20044;-69
2023/10/04 16:19:39;;;;;;;2.10;1.00;;;20.20;97.60;;;;;;10047545;28;20034;-69
2023/10/04 16:24:31;;;;;;;4.78;1.05;;;20.30;97.60;;;;;;10051212;28;20029;-68
2023/10/04 16:29:23;;;;;;;1.40;0.90;;;20.30;97.60;;;;;;10057873;28;20092;-69
2023/10/04 16:34:14;;;;;;;4.10;1.05;;;20.30;97.60;;;;;;10058130;28;20021;-69
2023/10/04 16:39:05;;;;;;;3.30;1.13;;;20.10;97.60;;;;;;10049462;28;20053;-67
2023/10/04 16:43:56;;;;;;;1.33;0.90;;;20.10;97.70;;;;;;10045264;28;20049;-67
2023/10/04 16:48:47;;;;;;;4.70;1.13;;;20.10;97.70;;;;;;10055289;28;20403;-70
2023/10/04 16:53:37;;;;;;;2.40;1.15;;;20.00;97.80;;;;;;10055113;28;20048;-69
2023/10/04 16:58:28;;;;;;;2.72;0.88;;;20.00;97.90;;;;;;10053424;28;20029;-69
2023/10/04 17:03:20;;;;;;;2.38;0.90;;;20.00;97.90;;;;;;10057199;28;20038;-69
2023/10/04 17:08:11;;;;;;;2.65;1.08;;;19.90;97.90;;;;;;10064342;28;20906;-68
2023/10/04 17:13:02;;;;;;;2.92;1.15;;;20.00;98.00;;;;;;10056041;28;20477;-73
2023/10/04 17:17:53;;;;;;;4.25;1.17;;;19.90;98.00;;;;;;10043934;28;20570;-79
2023/10/04 17:22:44;;;;;;;2.47;1.15;;;19.90;98.10;;;;;;10049837;28;20045;-78
2023/10/04 17:27:35;;;;;;;2.92;1.52;;;19.90;98.10;;;;;;10056030;28;20057;-74
2023/10/04 17:32:25;;;;;;;5.97;2.15;;;19.80;98.20;;;;;;10054893;28;20491;-68
2023/10/04 17:37:16;;;;;;;4.82;1.65;;;19.80;98.20;;;;;;10051705;28;20148;-73
2023/10/04 17:42:07;;;;;;;3.42;1.70;;;19.80;98.20;;;;;;10049555;28;20067;-75
2023/10/04 17:46:58;;;;;;;1.88;1.10;;;19.70;98.20;;;;;;10048007;28;20021;-77
2023/10/04 17:51:49;;;;;;;2.72;1.55;;;19.80;98.30;;;;;;10057235;28;20329;-74
2023/10/04 17:56:43;;;;;;;4.93;1.50;;;19.70;98.30;;;;;;10051914;28;20156;-73
2023/10/04 18:01:33;;;;;;;7.72;2.97;;;19.70;98.30;;;;;;10050581;28;20557;-70
2023/10/04 18:06:26;;;;;;;5.15;1.70;;;19.70;98.20;;;;;;10041105;28;20037;-73
2023/10/04 18:11:17;;;;;;;5.72;2.10;;;19.60;98.30;;;;;;10059300;28;20414;-77
2023/10/04 18:16:09;;;;;;;3.75;1.63;;;19.60;98.40;;;;;;10031249;28;20121;-71
2023/10/04 18:21:00;;;;;;;9.75;3.08;;;19.60;98.40;;;;;;10048100;28;20112;-69
2023/10/04 18:25:51;;;;;;;7.72;2.70;;;19.50;98.40;;;;;;10056831;28;20037;-75
2023/10/04 18:30:41;;;;;;;4.68;2.10;;;19.60;98.40;;;;;;10061565;28;20045;-74
2023/10/04 18:35:32;;;;;;;5.43;2.10;;;19.60;98.40;;;;;;10050548;28;20029;-72
2023/10/04 18:40:23;;;;;;;3.42;1.92;;;19.60;98.30;;;;;;10058989;28;20075;-71
2023/10/04 18:45:14;;;;;;;5.03;1.70;;;19.50;98.40;;;;;;10067107;28;20038;-71
2023/10/04 18:50:06;;;;;;;2.30;1.17;;;19.50;98.40;;;;;;10064320;28;20025;-72
2023/10/04 18:54:59;;;;;;;3.13;1.88;;;19.40;98.40;;;;;;10057801;28;20066;-72
2023/10/04 18:59:51;;;;;;;2.92;1.33;;;19.40;98.40;;;;;;10046407;28;20193;-71
2023/10/04 19:04:44;;;;;;;4.65;1.70;;;19.40;98.40;;;;;;10061984;28;20045;-70
2023/10/04 19:09:36;;;;;;;3.53;2.05;;;19.30;98.50;;;;;;10050539;28;20104;-73
2023/10/04 19:14:27;;;;;;;3.33;1.77;;;19.30;98.50;;;;;;10037631;28;20467;-69
2023/10/04 19:19:17;;;;;;;3.95;1.75;;;19.20;98.50;;;;;;10057722;28;20029;-69
2023/10/04 19:24:11;;;;;;;7.72;3.40;;;19.10;98.60;;;;;;10058107;28;20029;-69
2023/10/04 19:29:01;;;;;;;7.07;4.32;;;19.10;98.70;;;;;;10058765;28;20136;-69
2023/10/04 19:33:54;;;;;;;10.73;5.55;;;19.10;98.60;;;;;;10055608;28;20124;-71
2023/10/04 19:38:45;;;;;;;9.13;4.63;;;19.10;98.70;;;;;;10040852;28;20029;-68
2023/10/04 19:43:36;;;;;;;7.20;3.35;;;19.10;98.60;;;;;;10052089;28;20038;-73
2023/10/04 19:48:27;;;;;;;4.55;2.97;;;19.00;98.70;;;;;;10056622;28;20018;-71
2023/10/04 19:53:18;;;;;;;6.35;2.05;;;19.00;98.60;;;;;;10052211;28;20029;-69
2023/10/04 19:58:13;;;;;;;5.15;2.53;;;18.90;98.70;;;;;;10052955;28;20021;-68
2023/10/04 20:03:04;;;;;;;4.75;2.22;;;18.80;98.70;;;;;;10052523;28;20029;-73
2023/10/04 20:07:55;;;;;;;6.88;2.40;;;18.80;98.80;;;;;;10057725;28;20434;-71
2023/10/04 20:12:46;;;;;;;6.30;2.20;;;18.70;98.90;;;;;;10060280;28;20087;-70
2023/10/04 20:17:38;;;;;;;6.80;2.50;;;18.60;99.00;;;;;;10058923;28;20030;-70
2023/10/04 20:22:29;;;;;;;5.20;2.17;;;18.60;99.00;;;;;;10058921;28;20440;-70
2023/10/04 20:27:20;;;;;;;7.65;1.95;;;18.60;99.10;;;;;;10056515;28;20042;-71
2023/10/04 20:32:10;;;;;;;3.28;1.63;;;18.60;99.20;;;;;;10056185;28;20026;-72
2023/10/04 20:37:01;;;;;;;5.75;2.22;;;18.50;99.20;;;;;;10049324;28;20418;-71
2023/10/04 20:41:52;;;;;;;6.22;2.20;;;18.50;99.30;;;;;;10054137;28;20017;-71
2023/10/04 20:46:43;;;;;;;4.95;1.92;;;18.40;99.40;;;;;;10046470;28;20037;-71
2023/10/04 20:51:33;;;;;;;4.63;2.40;;;18.40;99.40;;;;;;10054061;28;20036;-67
2023/10/04 20:56:28;;;;;;;5.57;2.90;;;18.40;99.40;;;;;;10039707;28;20025;-69
2023/10/04 21:01:18;;;;;;;3.73;2.30;;;18.30;99.50;;;;;;10042698;28;20061;-68
2023/10/04 21:06:10;;;;;;;4.82;2.38;;;18.30;99.60;;;;;;10053092;28;20037;-69
2023/10/04 21:11:06;;;;;;;5.28;2.33;;;18.30;99.50;;;;;;10043781;28;20478;-67
2023/10/04 21:15:58;;;;;;;7.57;2.60;;;18.20;99.60;;;;;;10044491;28;20030;-70
2023/10/04 21:20:49;;;;;;;4.57;2.30;;;18.00;99.60;;;;;;10045111;28;20036;-70
2023/10/04 21:25:39;;;;;;;5.65;2.33;;;18.00;99.80;;;;;;10037680;28;20096;-68
2023/10/04 21:30:38;;;;;;;5.72;2.08;;;17.90;99.80;;;;;;10043451;28;20099;-67
2023/10/04 21:35:30;;;;;;;5.03;1.88;;;17.90;99.90;;;;;;10057795;28;20029;-70
2023/10/04 21:40:21;;;;;;;3.80;1.92;;;17.90;99.90;;;;;;10051681;28;20029;-72
2023/10/04 21:45:21;;;;;;;3.08;1.88;;;17.80;99.90;;;;;;10037216;28;20351;-69
2023/10/04 21:50:13;;;;;;;4.90;2.00;;;17.70;99.90;;;;;;10034687;28;20030;-68
2023/10/04 21:55:05;;;;;;;5.45;2.33;;;17.70;99.90;;;;;;10048290;28;20029;-75
2023/10/04 21:59:55;;;;;;;7.82;3.00;;;17.60;99.90;;;;;;10050698;28;20037;-70
2023/10/04 22:04:49;;;;;;;3.28;1.77;;;17.50;99.90;;;;;;10055784;28;20041;-71
2023/10/04 22:09:42;;;;;;;5.97;1.92;;;17.50;99.90;;;;;;10044089;28;20418;-67
2023/10/04 22:14:33;;;;;;;4.22;1.50;;;17.50;99.90;;;;;;10030035;28;20230;-68
2023/10/04 22:19:23;;;;;;;3.88;2.20;;;17.50;99.90;;;;;;10031088;28;20336;-68
2023/10/04 22:24:14;;;;;;;2.83;1.77;;;17.40;99.90;;;;;;10045731;28;20046;-71
2023/10/04 22:29:06;;;;;;;3.78;1.80;;;17.40;99.90;;;;;;10056967;28;20511;-69
2023/10/04 22:33:58;;;;;;;5.57;2.15;;;17.50;99.90;;;;;;10056580;28;20033;-68
2023/10/04 22:38:50;;;;;;;3.17;1.70;;;17.40;99.90;;;;;;10054608;28;20029;-69
2023/10/04 22:43:41;;;;;;;6.30;2.20;;;17.20;99.90;;;;;;10054344;28;20196;-69
2023/10/04 22:48:31;;;;;;;2.88;2.17;;;17.20;99.90;;;;;;10054670;28;20617;-68
2023/10/04 22:53:22;;;;;;;5.32;2.55;;;17.00;99.90;;;;;;10055140;28;20340;-70
2023/10/04 22:58:13;;;;;;;4.30;2.15;;;17.00;99.90;;;;;;10055766;28;20033;-72
2023/10/04 23:03:05;;;;;;;6.13;2.90;;;16.90;99.90;;;;;;10055009;28;20119;-75
2023/10/04 23:07:56;;;;;;;5.50;2.85;;;16.90;99.90;;;;;;10060749;28;20142;-72
2023/10/04 23:12:50;;;;;;;5.10;2.08;;;16.80;99.90;;;;;;10064480;28;20025;-69
2023/10/04 23:17:42;;;;;;;6.20;3.30;;;16.80;99.90;;;;;;10061894;28;20037;-68
2023/10/04 23:22:33;;;;;;;3.83;2.38;;;16.80;99.90;;;;;;10061405;28;20045;-70
2023/10/04 23:27:24;;;;;;;5.35;3.10;;;16.80;99.90;;;;;;10058867;28;20380;-68
2023/10/04 23:32:15;;;;;;;8.73;2.90;;;16.80;99.90;;;;;;10066069;28;20395;-67
2023/10/04 23:37:10;;;;;;;2.25;2.03;;;16.80;99.90;;;;;;10047934;28;20045;-68
2023/10/04 23:42:02;;;;;;;3.60;1.85;;;16.80;99.90;;;;;;10046004;28;20061;-74
2023/10/04 23:46:56;;;;;;;3.90;2.22;;;16.80;99.90;;;;;;10050747;28;20041;-77
2023/10/04 23:51:48;;;;;;;3.97;2.15;;;16.70;99.90;;;;;;10065307;28;20468;-75
